Pagrindinis puslapis
METAR-TAF:

METAR-TAF

Oro uostai :

Vitebskas, Baltarusija

platuma: 55-10N, ilguma: 030-13E, Aukštis: 176 m

Dabartinis oras

Ataskaita buvo paskelbta 11 valandos ir 16 minutes, ne 16:00 UTC
Vėjas 4 kt iš Šiaurės Vakarų
Temperatūra 6°C
Drėgmė 87%
Slėgis 1016 hPa
Matomumas 10 km arba daugiau
Su prošvaistėmis ne aukštis 2800 ft, Liūtiniai kamuoliniai debesys.

METAR: UMII 201600Z 32002MPS 9999 BKN028CB 06/04 Q1016 TEMPO 2000 SHRA BKN005

Laikas: 06:16 (03:16 UTC)

Prognozė

Ataskaita buvo paskelbta 13 valandos ir 11 minutes, ne 14:05 UTC
Prognozė galioja nuo 20 metu 15 UTC su 20 metu 24 UTC
Vėjas 6 kt iš Šiaurės/Šiaurės Vakarų
Matomumas 10 km arba daugiau
Su prošvaistėmis ne aukštis 1500 ft
Laikinai
nuo 20 metu 15 UTC su 20 metu 24 UTC
Vėjas 12 kt nuo kintamojo kryptimis
Matomumas: 2000 m
Su prošvaistėmis ne aukštis 500 ft
Su prošvaistėmis ne aukštis 1200 ft, Liūtiniai kamuoliniai debesys.
lietus

TAF: UMII 201405Z 2015/2024 33003MPS 9999 BKN015 TEMPO 2015/2024 VRB06MPS 2000 SHRA BKN005 BKN012CB

Orai ataskaitas ir orų prognozės (METAR, TAF).

turimą stotys yra geltonos ir raudonos taškus žemėlapyje.

Perkelti pele per norėdami pamatyti stoties vardą.

Tada spustelėkite, norėdami matyti oro stebėjimo ir prognozės.

Norėdami pakeisti žemėlapį: spustelėkite ant žalios mygtukų su juodo kryžiaus žemyn,; žalią mygtuką su brūkšneliu, jei norite nutolinti; arba žalių rodyklių gretimoms žemėlapius.


METAR-TAF: